CST,Max TemperatureF,Mean TemperatureF,Min TemperatureF,Max Dew PointF,MeanDew PointF,Min DewpointF,Max Humidity, Mean Humidity, Min Humidity, Max Sea Level PressureIn, Mean Sea Level PressureIn, Min Sea Level PressureIn, Max VisibilityMiles, Mean VisibilityMiles, Min VisibilityMiles, Max Wind SpeedMPH, Mean Wind SpeedMPH, Max Gust SpeedMPH,PrecipitationIn, CloudCover, Events, WindDirDegrees
2012-11-1,86,65,46,41,38,33,71,44,16,30.03,29.96,29.89,10,10,9,13,8,,0.00,0,,254
2012-11-2,86,70,53,54,45,37,69,46,24,29.95,29.87,29.79,10,10,10,24,13,30,0.00,0,,200
2012-11-3,68,56,45,42,36,32,71,51,30,30.18,30.11,29.96,10,10,8,17,13,23,0.00,0,,44
2012-11-4,69,53,37,36,32,30,76,49,23,30.22,30.15,30.06,10,10,10,9,3,,0.00,0,,79
2012-11-5,70,57,41,38,32,28,63,43,21,30.15,30.11,30.08,10,10,10,26,9,29,0.00,0,,354
2012-11-6,79,56,34,37,34,28,79,51,21,30.16,30.13,30.05,10,10,10,16,7,21,0.00,0,,340
2012-11-7,73,56,39,39,33,30,76,46,21,30.22,30.10,29.97,10,9,5,22,9,29,0.00,0,,164
2012-11-8,82,68,53,54,46,36,61,48,33,29.99,29.87,29.79,10,9,4,29,20,34,0.00,0,,184
2012-11-9,82,70,59,57,54,50,78,57,37,29.86,29.80,29.72,10,10,10,29,21,36,0.00,0,,187
2012-11-10,81,71,61,59,55,53,83,60,42,29.83,29.73,29.62,10,10,10,37,22,47,0.00,1,,183
2012-11-11,66,50,30,59,44,25,94,78,53,30.35,29.92,29.67,10,8,2,22,13,29,0.82,6,Rain-Thunderstorm,8
2012-11-12,52,40,27,32,27,24,89,66,35,30.53,30.47,30.36,10,10,10,13,7,,0.00,0,,250
2012-11-13,55,42,28,29,24,17,82,55,23,30.49,30.40,30.28,10,10,10,20,11,24,0.00,1,,195
2012-11-14,62,46,30,29,27,25,82,55,26,30.38,30.31,30.23,10,10,4,15,11,,0.00,0,,201
2012-11-15,62,50,37,43,34,27,82,63,47,30.36,30.25,30.19,10,10,9,17,12,,0.00,0,,171
2012-11-16,63,50,37,38,34,31,93,60,32,30.43,30.36,30.32,10,10,8,12,4,,0.00,2,,147
2012-11-17,64,52,39,34,31,28,73,49,32,30.36,30.28,30.21,10,10,10,20,14,28,0.00,0,,176
2012-11-18,69,58,48,49,38,29,67,49,36,30.20,30.13,30.06,10,10,10,31,18,36,0.00,2,,187
2012-11-19,72,61,50,53,49,44,92,72,48,30.15,30.10,30.06,10,10,9,16,11,,0.00,1,,182
2012-11-20,73,56,39,54,46,39,100,83,41,30.25,30.19,30.14,10,5,0,9,5,,0.00,0,Fog,50
2012-11-21,75,58,41,51,46,40,97,64,29,30.23,30.13,30.00,10,9,5,24,9,31,0.00,0,,184
2012-11-22,80,68,55,51,45,32,80,52,31,30.24,29.98,29.86,10,10,10,30,17,46,0.00,0,,204
2012-11-23,57,46,32,35,25,21,66,44,25,30.55,30.45,30.27,10,10,10,22,16,28,0.00,0,,38
2012-11-24,62,45,28,25,22,18,78,45,19,30.44,30.22,29.97,10,10,10,25,12,33,0.00,0,,206
2012-11-25,63,51,39,34,30,22,73,49,33,29.95,29.86,29.81,10,10,10,21,11,,0.00,0,,172
2012-11-26,54,45,35,32,28,21,82,59,38,30.42,30.12,29.84,10,10,10,32,14,37,0.00,0,,27
2012-11-27,51,38,24,28,24,22,91,64,33,30.50,30.40,30.31,10,9,4,14,9,,0.00,0,,187
2012-11-28,66,48,30,39,33,24,85,58,31,30.35,30.25,30.12,10,10,10,22,10,24,0.00,0,,179
2012-11-29,69,56,43,46,42,37,82,62,39,30.12,30.04,29.96,10,10,10,28,18,33,0.00,0,,186
2012-11-30,69,56,42,51,44,33,100,74,32,30.05,29.98,29.91,10,7,0,21,12,23,0.00,0,Fog,180